Junction City, CA

5:22 PM PDT on September 23, 2014 (GMT -0700)
Arcata | Change Station
CLOSE
Current Station
Airport
Location: Arcata,
Elevation: 217 ft
Nearby Weather Stations

Elev 217 ft 40.98 °N, 124.10 °W | Updated 29 minutes ago

Clear
Clear
69 °F
Feels Like 69 °F
N
20
Wind Variable Wind from SW
Gusts 26 mph

Today
High -- | Low -- °F
--% Chance of Precip.
Yesterday
High -- | Low -- °F
Precip. -- in
7:00 AM 7:07 PM
Waning Crescent, 0% visible
Pressure 29.87 in
Visibility 10.0 miles
Clouds Mostly Cloudy 7500 ft
Overcast 11000 ft
Dew Point 62 °F
Humidity 78%
Rainfall 0.00 in
Snow Depth 2 in , 0 in , 0 in
UV 1 out of 12
Pollen 6.00 out of 12
Air Quality Not available.
Flu Activity Not available.
METAR KACV 232353Z AUTO 22017G23KT 10SM BKN075 OVC110 21/17 A2985 RMK AO2 PK WND 22026/2308 SLP113 T02060167 10261 20200 55005

More Conditions Fewer Conditions

Pressure 29.87 in
Visibility 10.0 miles
Clouds Mostly Cloudy 7500 ft
Overcast 11000 ft
Dew Point 62 °F
Humidity 78%
Rainfall 0.00 in
Snow Depth 2 in , 0 in , 0 in
UV 1 out of 12
Pollen 6.00 out of 12
Air Quality Not available.
Flu Activity Not available.
METAR KACV 232353Z AUTO 22017G23KT 10SM BKN075 OVC110 21/17 A2985 RMK AO2 PK WND 22026/2308 SLP113 T02060167 10261 20200 55005

More Conditions Fewer Conditions

10-Day Weather Forecast

Almanac

Astronomy

Sep. 23, 2014 Rise Set
Actual Time 7:00 AM PDT 7:07 PM PDT
Civil Twilight 6:33 AM PDT 7:34 PM PDT
Nautical Twilight 6:01 AM PDT 8:06 PM PDT
Astronomical Twilight 5:28 AM PDT 8:39 PM PDT
Moon 6:30 AM PDT (9/23) 6:49 PM PDT (9/23)
Length of Visible Light 13h 01m
Length of Day
12h 06m
Tomorrow will be 2m 41s shorter.
Waning Crescent, 0% of the Moon is Illuminated
Today
Waning Crescent
Sep 24
New
Oct 1
First Quarter
Oct 8
Full
Oct 15
Last Quarter

Today's Extremes

State Highs State Lows

Community

WunderPhotos

Upload Photos

1,755,828 photos uploaded!

WunderBlogs® & News

Nearby

Snow Depth

Station Depth Elevation
CSS Lab 2 in 6900 ft
Echo Peak 0 in 7800 ft
Adin Mountain 0 in 6200 ft
Summit Meadow 0 in 9122 ft
Leavitt Meadows 0 in 7200 ft

Earthquake Activity

City Distance Mag. Time & Date
No recent earthquake activity has been reported nearby.
Minimum magnitude displayed is 2.5.

Coastal Water Temperatures

Place Temperature
No Stations Reporting

Nearby Weather Stations